Beauval, Canada
Current Conditions -  °F | °C
As of 8:00 AM on Thursday 30 Oct 2014 (Local Time) from CYVT Reporting Station
Overcast Overcast  
Wind Chill: 20°   Ceiling: 1800
Heat Index: 28°   Visibility: 15mi
Dew Point: 23°   Wind: 8mph
Humidity: 80%   Direction: 170°S
Pressure: 30.39"   Gusts: 17mph
Location:  55.15°N, 107.62°W
Report Text: CYVT 301400Z 17007G15KT 15SM OVC018 M02/M05 A3039 RMK SC8 SLP319
Loading
Personal Weather Stations






























Interactive Weather Map
Tropical Storm Tracking
New forecast layout! Learn more

10-Day Weather Forecast

Advertisements
Track Severe Weather on mobile